Last 30 Days

Squaw-Belmont 8000'

Daily Data | America/Los_Angeles
as of 7/18/19 11:16 PM PDT
Date Daily Max Temp (°F) Max Temp Time Daily Min Temp (°F) Min Temp Time Daily Rain (In) Seasonal Rainfall (In) New Snow (in) SnowDepth (in) Wind Spd (mph) Daily Max Wind (mph) Max Wind Time Max Wind Dir (°) Max RH (%) Min RH (%) Wet Bulb (°F) WetB Hrs <28F (hrs) Bat Volt Min Day (V)
7/17/19 70.1 1225 48.3 0528 0.00 56.10 - - 5.0 22.2 2302 WSW | 258 85 32 49.7 0.0 13.05
7/16/19 63.3 1416 50.1 2059 0.00 56.10 - - 7.4 21.4 1552 SW | 226 89 30 45.8 0.0 13.07
7/15/19 65.5 1310 51.0 2259 0.02 56.10 - - 8.5 26.2 1624 W | 259 65 23 44.3 0.0 13.06
7/14/19 66.6 1226 52.6 2338 0.00 56.08 0.0 46 7.8 27.8 1510 W | 259 48 27 44.8 0.0 13.05
7/13/19 67.4 1438 52.2 0452 0.00 56.08 0.0 49 7.0 23.2 1334 W | 262 56 27 47.2 0.0 13.04
7/12/19 70.1 1408 52.8 0511 0.00 56.08 0.0 52 3.8 16.0 1654 WSW | 239 72 29 48.7 0.0 13.03
7/11/19 68.5 1340 50.7 0253 0.00 56.08 0.0 57 6.3 18.0 1440 SW | 235 61 25 46.7 0.0 13.03
7/10/19 65.6 1224 49.4 0334 0.00 56.08 0.0 61 9.8 24.4 1927 SW | 234 64 27 46.1 0.0 12.97
7/9/19 63.0 1211 45.1 0521 0.00 56.08 0.0 65 8.4 23.0 1740 SW | 224 67 27 42.1 0.0 12.93
7/8/19 59.8 1209 46.4 0512 0.00 56.08 0.0 67 10.5 32.1 1536 WSW | 245 50 28 40.6 0.0 12.89
7/7/19 59.3 1552 46.2 0426 0.00 56.08 0.0 70 8.8 24.3 1820 WSW | 238 63 33 42.0 0.0 12.88
7/6/19 63.1 1203 46.9 0411 0.00 56.08 0.0 72 9.0 22.2 1609 WSW | 255 69 26 44.6 0.0 12.94
7/5/19 65.9 1215 47.3 0424 0.00 56.08 0.0 77 4.1 17.5 1620 SSW | 213 87 30 47.3 0.0 12.89
7/4/19 62.0 1542 42.5 0409 0.00 56.08 0.0 79 3.9 14.7 1627 W | 274 80 23 43.2 0.0 12.87
7/3/19 58.9 1222 41.0 0533 0.00 56.08 0.0 82 6.4 19.0 1816 WSW | 246 84 18 40.3 0.0 12.43
7/2/19 57.5 1232 45.3 2331 0.00 56.08 0.0 84 10.9 24.5 1429 WSW | 248 74 21 40.1 0.0 12.87
7/1/19 60.9 1220 45.6 0536 0.00 56.08 0.0 87 10.7 25.6 0200 SW | 224 60 22 40.4 0.0 12.88
6/30/19 57.8 1443 44.6 0135 0.00 56.08 0.0 90 8.9 23.6 2222 SW | 222 69 30 41.0 0.0 12.88
6/29/19 56.7 1140 40.3 0355 0.00 56.08 0.0 94 6.9 21.5 2255 SW | 216 67 29 39.0 0.0 12.87
6/28/19 52.1 1137 40.6 2249 0.00 56.08 0.0 96 7.9 22.7 0240 SW | 215 75 24 36.2 0.0 12.82
6/27/19 48.3 1208 37.4 0503 0.00 56.08 0.0 95 9.3 37.3 1419 SW | 218 76 30 34.9 0.0 12.83
6/26/19 49.4 1234 38.9 2334 0.00 56.08 0.0 99 10.6 42.0 1648 SW | 233 86 44 37.1 0.0 12.83
6/25/19 55.0 1522 42.1 2345 0.00 56.08 0.0 103 7.4 26.2 1720 WSW | 238 73 25 39.3 0.0 12.87
6/24/19 58.6 1234 45.3 0332 0.00 56.08 0.0 103 6.2 24.3 1533 SW | 231 66 40 43.4 0.0 12.89
6/23/19 60.3 0753 42.5 0457 0.00 56.08 0.0 107 4.6 17.3 2046 W | 272 62 27 41.1 0.0 12.93
6/22/19 54.2 1751 36.8 0450 0.00 56.08 0.0 110 3.9 17.4 1014 ESE | 116 62 30 36.9 0.0 12.87
6/21/19 54.1 1526 34.4 0527 0.00 56.08 0.0 112 3.0 15.0 0001 NNW | 342 77 30 37.8 0.0 12.87
6/20/19 56.9 1304 43.8 2213 0.00 56.08 0.0 113 11.7 36.7 0943 WSW | 250 91 37 44.5 0.0 12.89
6/19/19 69.1 0750 48.8 0330 0.00 56.08 0.0 116 6.1 22.3 1621 SW | 229 74 32 48.0 0.0 13.07
6/18/19 65.8 1533 49.2 0457 0.00 56.08 0.0 120 4.4 19.0 0116 N | 349 75 32 47.1 0.0 13.03
Max 70.1 - 52.8 - 0.02 - 0.0 120 11.7 42.0 - - 91 44 49.7 0.0 13.07
Avg - - - - - - 0.0 85 7.3 - - - - - 42.7 - -
Min 48.3 - 34.4 - 0.00 - 0.0 46 3.0 14.7 - - 48 18 34.9 0.0 12.43